sensor_id;sensor_type;location;lat;lon;timestamp;P1;durP1;ratioP1;P2;durP2;ratioP2
6422;SDS011;3244;42.708;23.288;2022-12-20T00:01:20;12.77;;;8.80;;
6422;SDS011;3244;42.708;23.288;2022-12-20T00:03:48;13.23;;;8.77;;
6422;SDS011;3244;42.708;23.288;2022-12-20T00:06:16;19.63;;;9.53;;
6422;SDS011;3244;42.708;23.288;2022-12-20T00:08:43;12.87;;;9.70;;
6422;SDS011;3244;42.708;23.288;2022-12-20T00:11:11;12.30;;;8.23;;
6422;SDS011;3244;42.708;23.288;2022-12-20T00:13:39;11.00;;;8.50;;
6422;SDS011;3244;42.708;23.288;2022-12-20T00:16:06;12.97;;;7.93;;
6422;SDS011;3244;42.708;23.288;2022-12-20T00:18:34;13.30;;;7.73;;
6422;SDS011;3244;42.708;23.288;2022-12-20T00:21:02;11.60;;;8.30;;
6422;SDS011;3244;42.708;23.288;2022-12-20T00:23:31;16.40;;;9.37;;
6422;SDS011;3244;42.708;23.288;2022-12-20T00:26:01;12.37;;;8.20;;
6422;SDS011;3244;42.708;23.288;2022-12-20T00:28:31;13.47;;;8.87;;
6422;SDS011;3244;42.708;23.288;2022-12-20T00:30:59;13.80;;;9.33;;
6422;SDS011;3244;42.708;23.288;2022-12-20T00:33:27;14.80;;;8.53;;
6422;SDS011;3244;42.708;23.288;2022-12-20T00:35:54;14.60;;;9.57;;
6422;SDS011;3244;42.708;23.288;2022-12-20T00:38:21;13.97;;;8.43;;
6422;SDS011;3244;42.708;23.288;2022-12-20T00:40:57;14.53;;;8.60;;
6422;SDS011;3244;42.708;23.288;2022-12-20T00:43:25;11.83;;;7.73;;
6422;SDS011;3244;42.708;23.288;2022-12-20T00:45:53;12.50;;;7.83;;
6422;SDS011;3244;42.708;23.288;2022-12-20T00:48:19;10.73;;;7.63;;
6422;SDS011;3244;42.708;23.288;2022-12-20T00:50:46;9.60;;;6.80;;
6422;SDS011;3244;42.708;23.288;2022-12-20T00:53:13;12.23;;;8.17;;
6422;SDS011;3244;42.708;23.288;2022-12-20T00:55:40;10.27;;;6.40;;
6422;SDS011;3244;42.708;23.288;2022-12-20T00:58:07;10.37;;;6.00;;
6422;SDS011;3244;42.708;23.288;2022-12-20T01:00:34;13.77;;;7.77;;
6422;SDS011;3244;42.708;23.288;2022-12-20T01:03:02;12.33;;;7.47;;
6422;SDS011;3244;42.708;23.288;2022-12-20T01:05:29;10.67;;;7.93;;
6422;SDS011;3244;42.708;23.288;2022-12-20T01:07:56;7.80;;;7.00;;
6422;SDS011;3244;42.708;23.288;2022-12-20T01:10:23;12.73;;;7.80;;
6422;SDS011;3244;42.708;23.288;2022-12-20T01:12:50;12.50;;;6.77;;
6422;SDS011;3244;42.708;23.288;2022-12-20T01:15:16;10.13;;;7.07;;
6422;SDS011;3244;42.708;23.288;2022-12-20T01:17:43;9.53;;;5.93;;
6422;SDS011;3244;42.708;23.288;2022-12-20T01:20:12;7.07;;;5.77;;
6422;SDS011;3244;42.708;23.288;2022-12-20T01:22:39;6.87;;;6.00;;
6422;SDS011;3244;42.708;23.288;2022-12-20T01:25:06;7.70;;;4.97;;
6422;SDS011;3244;42.708;23.288;2022-12-20T01:27:33;9.70;;;6.73;;
6422;SDS011;3244;42.708;23.288;2022-12-20T01:29:59;8.40;;;5.83;;
6422;SDS011;3244;42.708;23.288;2022-12-20T01:32:26;9.13;;;7.17;;
6422;SDS011;3244;42.708;23.288;2022-12-20T01:34:53;8.33;;;6.80;;
6422;SDS011;3244;42.708;23.288;2022-12-20T01:37:21;9.37;;;5.73;;
6422;SDS011;3244;42.708;23.288;2022-12-20T01:39:48;12.67;;;6.63;;
6422;SDS011;3244;42.708;23.288;2022-12-20T01:42:14;9.70;;;6.80;;
6422;SDS011;3244;42.708;23.288;2022-12-20T01:47:33;6.67;;;5.77;;
6422;SDS011;3244;42.708;23.288;2022-12-20T01:50:02;9.27;;;6.93;;
6422;SDS011;3244;42.708;23.288;2022-12-20T01:52:33;11.40;;;7.43;;
6422;SDS011;3244;42.708;23.288;2022-12-20T01:55:04;8.40;;;5.47;;
6422;SDS011;3244;42.708;23.288;2022-12-20T01:57:35;9.10;;;6.27;;
6422;SDS011;3244;42.708;23.288;2022-12-20T02:00:07;11.67;;;7.10;;
6422;SDS011;3244;42.708;23.288;2022-12-20T02:02:35;13.57;;;6.87;;
6422;SDS011;3244;42.708;23.288;2022-12-20T02:05:02;9.90;;;7.03;;
6422;SDS011;3244;42.708;23.288;2022-12-20T02:07:29;7.77;;;5.90;;
6422;SDS011;3244;42.708;23.288;2022-12-20T02:09:59;10.47;;;7.20;;
6422;SDS011;3244;42.708;23.288;2022-12-20T02:12:28;13.10;;;6.23;;
6422;SDS011;3244;42.708;23.288;2022-12-20T02:15:05;9.17;;;7.30;;
6422;SDS011;3244;42.708;23.288;2022-12-20T02:17:47;10.40;;;7.87;;
6422;SDS011;3244;42.708;23.288;2022-12-20T02:23:30;7.27;;;6.10;;
6422;SDS011;3244;42.708;23.288;2022-12-20T02:26:16;13.97;;;7.53;;
6422;SDS011;3244;42.708;23.288;2022-12-20T02:29:01;6.77;;;5.47;;
6422;SDS011;3244;42.708;23.288;2022-12-20T02:31:41;7.13;;;6.43;;
6422;SDS011;3244;42.708;23.288;2022-12-20T02:34:11;8.83;;;5.70;;
6422;SDS011;3244;42.708;23.288;2022-12-20T02:36:40;9.07;;;6.90;;
6422;SDS011;3244;42.708;23.288;2022-12-20T02:39:07;7.33;;;5.27;;
6422;SDS011;3244;42.708;23.288;2022-12-20T02:41:37;9.60;;;6.23;;
6422;SDS011;3244;42.708;23.288;2022-12-20T02:44:12;11.37;;;6.80;;
6422;SDS011;3244;42.708;23.288;2022-12-20T02:47:01;11.17;;;6.70;;
6422;SDS011;3244;42.708;23.288;2022-12-20T02:49:34;9.87;;;7.13;;
6422;SDS011;3244;42.708;23.288;2022-12-20T02:52:05;12.60;;;7.27;;
6422;SDS011;3244;42.708;23.288;2022-12-20T02:54:33;10.53;;;7.40;;
6422;SDS011;3244;42.708;23.288;2022-12-20T02:57:04;12.17;;;7.57;;
6422;SDS011;3244;42.708;23.288;2022-12-20T02:59:38;10.27;;;8.57;;
6422;SDS011;3244;42.708;23.288;2022-12-20T03:02:12;5.70;;;5.10;;
6422;SDS011;3244;42.708;23.288;2022-12-20T03:04:39;11.00;;;7.27;;
6422;SDS011;3244;42.708;23.288;2022-12-20T03:07:08;7.60;;;7.00;;
6422;SDS011;3244;42.708;23.288;2022-12-20T03:09:37;10.40;;;6.93;;
6422;SDS011;3244;42.708;23.288;2022-12-20T03:12:06;13.23;;;7.53;;
6422;SDS011;3244;42.708;23.288;2022-12-20T03:14:34;11.90;;;7.60;;
6422;SDS011;3244;42.708;23.288;2022-12-20T03:17:00;9.47;;;7.87;;
6422;SDS011;3244;42.708;23.288;2022-12-20T03:19:29;7.00;;;6.30;;
6422;SDS011;3244;42.708;23.288;2022-12-20T03:21:56;10.00;;;7.20;;
6422;SDS011;3244;42.708;23.288;2022-12-20T03:24:23;6.07;;;5.43;;
6422;SDS011;3244;42.708;23.288;2022-12-20T03:26:50;12.20;;;8.13;;
6422;SDS011;3244;42.708;23.288;2022-12-20T03:29:17;9.50;;;6.97;;
6422;SDS011;3244;42.708;23.288;2022-12-20T03:31:44;10.37;;;7.67;;
6422;SDS011;3244;42.708;23.288;2022-12-20T03:34:10;10.50;;;7.47;;
6422;SDS011;3244;42.708;23.288;2022-12-20T03:36:39;12.17;;;6.93;;
6422;SDS011;3244;42.708;23.288;2022-12-20T03:39:05;14.40;;;7.20;;
6422;SDS011;3244;42.708;23.288;2022-12-20T03:41:32;10.30;;;7.63;;
6422;SDS011;3244;42.708;23.288;2022-12-20T03:43:59;13.47;;;7.20;;
6422;SDS011;3244;42.708;23.288;2022-12-20T03:46:25;11.80;;;7.07;;
6422;SDS011;3244;42.708;23.288;2022-12-20T03:48:53;10.87;;;7.73;;
6422;SDS011;3244;42.708;23.288;2022-12-20T03:51:19;13.57;;;8.17;;
6422;SDS011;3244;42.708;23.288;2022-12-20T03:53:47;10.80;;;7.80;;
6422;SDS011;3244;42.708;23.288;2022-12-20T03:56:14;11.67;;;7.87;;
6422;SDS011;3244;42.708;23.288;2022-12-20T03:58:41;7.73;;;6.37;;
6422;SDS011;3244;42.708;23.288;2022-12-20T04:01:17;11.27;;;8.17;;
6422;SDS011;3244;42.708;23.288;2022-12-20T04:03:46;12.63;;;8.77;;
6422;SDS011;3244;42.708;23.288;2022-12-20T04:06:12;11.57;;;8.33;;
6422;SDS011;3244;42.708;23.288;2022-12-20T04:08:40;12.17;;;8.67;;
6422;SDS011;3244;42.708;23.288;2022-12-20T04:11:08;10.47;;;8.60;;
6422;SDS011;3244;42.708;23.288;2022-12-20T04:13:41;15.53;;;9.37;;
6422;SDS011;3244;42.708;23.288;2022-12-20T04:16:08;12.10;;;8.50;;
6422;SDS011;3244;42.708;23.288;2022-12-20T04:18:35;16.47;;;9.13;;
6422;SDS011;3244;42.708;23.288;2022-12-20T04:21:02;10.47;;;8.17;;
6422;SDS011;3244;42.708;23.288;2022-12-20T04:23:31;13.43;;;6.63;;
6422;SDS011;3244;42.708;23.288;2022-12-20T04:25:58;11.93;;;9.00;;
6422;SDS011;3244;42.708;23.288;2022-12-20T04:28:27;12.97;;;8.63;;
6422;SDS011;3244;42.708;23.288;2022-12-20T04:30:54;15.73;;;8.73;;
6422;SDS011;3244;42.708;23.288;2022-12-20T04:33:21;11.23;;;8.43;;
6422;SDS011;3244;42.708;23.288;2022-12-20T04:35:47;11.60;;;8.67;;
6422;SDS011;3244;42.708;23.288;2022-12-20T04:38:14;10.10;;;8.33;;
6422;SDS011;3244;42.708;23.288;2022-12-20T04:40:42;12.63;;;8.43;;
6422;SDS011;3244;42.708;23.288;2022-12-20T04:43:09;16.83;;;8.67;;
6422;SDS011;3244;42.708;23.288;2022-12-20T04:45:37;10.90;;;8.10;;
6422;SDS011;3244;42.708;23.288;2022-12-20T04:48:03;12.17;;;9.17;;
6422;SDS011;3244;42.708;23.288;2022-12-20T04:50:30;11.20;;;7.50;;
6422;SDS011;3244;42.708;23.288;2022-12-20T04:52:57;16.83;;;9.07;;
6422;SDS011;3244;42.708;23.288;2022-12-20T04:55:41;11.40;;;8.63;;
6422;SDS011;3244;42.708;23.288;2022-12-20T04:58:08;11.83;;;8.67;;
6422;SDS011;3244;42.708;23.288;2022-12-20T05:00:36;10.70;;;7.27;;
6422;SDS011;3244;42.708;23.288;2022-12-20T05:03:03;11.47;;;7.93;;
6422;SDS011;3244;42.708;23.288;2022-12-20T05:05:29;14.80;;;8.87;;
6422;SDS011;3244;42.708;23.288;2022-12-20T05:07:57;16.73;;;9.47;;
6422;SDS011;3244;42.708;23.288;2022-12-20T05:10:24;11.43;;;8.70;;
6422;SDS011;3244;42.708;23.288;2022-12-20T05:12:51;14.80;;;8.97;;
6422;SDS011;3244;42.708;23.288;2022-12-20T05:15:17;9.50;;;6.77;;
6422;SDS011;3244;42.708;23.288;2022-12-20T05:17:47;13.93;;;8.43;;
6422;SDS011;3244;42.708;23.288;2022-12-20T05:20:13;11.33;;;8.53;;
6422;SDS011;3244;42.708;23.288;2022-12-20T05:22:40;12.53;;;9.53;;
6422;SDS011;3244;42.708;23.288;2022-12-20T05:25:24;12.93;;;8.83;;
6422;SDS011;3244;42.708;23.288;2022-12-20T05:28:08;13.53;;;9.27;;
6422;SDS011;3244;42.708;23.288;2022-12-20T05:30:35;11.90;;;9.03;;
6422;SDS011;3244;42.708;23.288;2022-12-20T05:33:03;10.97;;;7.87;;
6422;SDS011;3244;42.708;23.288;2022-12-20T05:35:30;12.43;;;8.43;;
6422;SDS011;3244;42.708;23.288;2022-12-20T05:37:57;20.17;;;10.23;;
6422;SDS011;3244;42.708;23.288;2022-12-20T05:40:24;11.47;;;7.90;;
6422;SDS011;3244;42.708;23.288;2022-12-20T05:42:50;20.30;;;10.83;;
6422;SDS011;3244;42.708;23.288;2022-12-20T05:45:17;12.97;;;8.63;;
6422;SDS011;3244;42.708;23.288;2022-12-20T05:47:44;15.10;;;9.70;;
6422;SDS011;3244;42.708;23.288;2022-12-20T05:50:12;16.20;;;10.13;;
6422;SDS011;3244;42.708;23.288;2022-12-20T05:52:41;16.33;;;9.67;;
6422;SDS011;3244;42.708;23.288;2022-12-20T05:55:08;13.10;;;9.60;;
6422;SDS011;3244;42.708;23.288;2022-12-20T05:57:34;18.90;;;10.97;;
6422;SDS011;3244;42.708;23.288;2022-12-20T06:00:02;13.50;;;8.87;;
6422;SDS011;3244;42.708;23.288;2022-12-20T06:02:29;13.53;;;9.67;;
6422;SDS011;3244;42.708;23.288;2022-12-20T06:04:56;14.93;;;9.93;;
6422;SDS011;3244;42.708;23.288;2022-12-20T06:07:24;17.87;;;10.07;;
6422;SDS011;3244;42.708;23.288;2022-12-20T06:09:52;14.80;;;9.83;;
6422;SDS011;3244;42.708;23.288;2022-12-20T06:12:19;15.80;;;10.00;;
6422;SDS011;3244;42.708;23.288;2022-12-20T06:14:47;15.43;;;9.60;;
6422;SDS011;3244;42.708;23.288;2022-12-20T06:17:14;17.87;;;10.30;;
6422;SDS011;3244;42.708;23.288;2022-12-20T06:19:40;18.93;;;10.33;;
6422;SDS011;3244;42.708;23.288;2022-12-20T06:22:07;15.70;;;9.60;;
6422;SDS011;3244;42.708;23.288;2022-12-20T06:24:36;15.93;;;9.73;;
6422;SDS011;3244;42.708;23.288;2022-12-20T06:27:03;17.67;;;10.33;;
6422;SDS011;3244;42.708;23.288;2022-12-20T06:29:31;17.20;;;10.93;;
6422;SDS011;3244;42.708;23.288;2022-12-20T06:31:58;19.17;;;9.53;;
6422;SDS011;3244;42.708;23.288;2022-12-20T06:34:25;22.47;;;10.20;;
6422;SDS011;3244;42.708;23.288;2022-12-20T06:36:51;15.00;;;9.80;;
6422;SDS011;3244;42.708;23.288;2022-12-20T06:39:18;17.93;;;10.40;;
6422;SDS011;3244;42.708;23.288;2022-12-20T06:41:46;15.53;;;9.73;;
6422;SDS011;3244;42.708;23.288;2022-12-20T06:44:13;21.07;;;10.27;;
6422;SDS011;3244;42.708;23.288;2022-12-20T06:46:40;25.10;;;9.90;;
6422;SDS011;3244;42.708;23.288;2022-12-20T06:49:07;15.50;;;10.07;;
6422;SDS011;3244;42.708;23.288;2022-12-20T06:51:33;15.03;;;8.83;;
6422;SDS011;3244;42.708;23.288;2022-12-20T06:54:00;16.33;;;9.57;;
6422;SDS011;3244;42.708;23.288;2022-12-20T06:56:27;15.23;;;9.67;;
6422;SDS011;3244;42.708;23.288;2022-12-20T06:58:55;12.27;;;8.87;;
6422;SDS011;3244;42.708;23.288;2022-12-20T07:01:21;14.75;;;8.23;;
6422;SDS011;3244;42.708;23.288;2022-12-20T07:03:48;13.33;;;7.73;;
6422;SDS011;3244;42.708;23.288;2022-12-20T07:06:15;9.23;;;8.03;;
6422;SDS011;3244;42.708;23.288;2022-12-20T07:08:41;15.17;;;8.57;;
6422;SDS011;3244;42.708;23.288;2022-12-20T07:11:08;15.33;;;9.03;;
6422;SDS011;3244;42.708;23.288;2022-12-20T07:13:36;25.23;;;10.80;;
6422;SDS011;3244;42.708;23.288;2022-12-20T07:16:04;14.77;;;9.67;;
6422;SDS011;3244;42.708;23.288;2022-12-20T07:18:31;17.10;;;10.40;;
6422;SDS011;3244;42.708;23.288;2022-12-20T07:20:59;17.60;;;10.93;;
6422;SDS011;3244;42.708;23.288;2022-12-20T07:23:27;17.50;;;10.97;;
6422;SDS011;3244;42.708;23.288;2022-12-20T07:25:54;16.70;;;10.57;;
6422;SDS011;3244;42.708;23.288;2022-12-20T07:28:21;17.30;;;10.13;;
6422;SDS011;3244;42.708;23.288;2022-12-20T07:30:47;17.17;;;11.00;;
6422;SDS011;3244;42.708;23.288;2022-12-20T07:33:16;18.17;;;10.23;;
6422;SDS011;3244;42.708;23.288;2022-12-20T07:35:43;16.97;;;10.87;;
6422;SDS011;3244;42.708;23.288;2022-12-20T07:38:10;18.30;;;10.60;;
6422;SDS011;3244;42.708;23.288;2022-12-20T07:40:38;14.60;;;9.73;;
6422;SDS011;3244;42.708;23.288;2022-12-20T07:43:06;14.70;;;10.13;;
6422;SDS011;3244;42.708;23.288;2022-12-20T07:45:33;16.77;;;9.95;;
6422;SDS011;3244;42.708;23.288;2022-12-20T07:48:00;17.90;;;10.00;;
6422;SDS011;3244;42.708;23.288;2022-12-20T07:50:28;17.23;;;10.07;;
6422;SDS011;3244;42.708;23.288;2022-12-20T07:52:56;20.25;;;9.80;;
6422;SDS011;3244;42.708;23.288;2022-12-20T07:55:23;16.30;;;9.37;;
6422;SDS011;3244;42.708;23.288;2022-12-20T07:57:50;12.73;;;8.87;;
6422;SDS011;3244;42.708;23.288;2022-12-20T08:00:20;21.60;;;9.97;;
6422;SDS011;3244;42.708;23.288;2022-12-20T08:02:48;15.70;;;9.57;;
6422;SDS011;3244;42.708;23.288;2022-12-20T08:05:21;14.40;;;9.17;;
6422;SDS011;3244;42.708;23.288;2022-12-20T08:07:49;13.10;;;9.33;;
6422;SDS011;3244;42.708;23.288;2022-12-20T08:10:19;15.73;;;8.07;;
6422;SDS011;3244;42.708;23.288;2022-12-20T08:12:46;13.90;;;8.77;;
6422;SDS011;3244;42.708;23.288;2022-12-20T08:15:14;14.25;;;9.07;;
6422;SDS011;3244;42.708;23.288;2022-12-20T08:17:41;14.32;;;9.90;;
6422;SDS011;3244;42.708;23.288;2022-12-20T08:20:08;13.17;;;9.17;;
6422;SDS011;3244;42.708;23.288;2022-12-20T08:22:36;15.00;;;9.97;;
6422;SDS011;3244;42.708;23.288;2022-12-20T08:25:04;14.33;;;8.90;;
6422;SDS011;3244;42.708;23.288;2022-12-20T08:27:31;15.63;;;9.53;;
6422;SDS011;3244;42.708;23.288;2022-12-20T08:29:58;11.27;;;7.83;;
6422;SDS011;3244;42.708;23.288;2022-12-20T08:32:25;11.13;;;8.10;;
6422;SDS011;3244;42.708;23.288;2022-12-20T08:34:53;13.00;;;8.33;;
6422;SDS011;3244;42.708;23.288;2022-12-20T08:37:20;14.70;;;8.13;;
6422;SDS011;3244;42.708;23.288;2022-12-20T08:39:47;10.93;;;8.10;;
6422;SDS011;3244;42.708;23.288;2022-12-20T08:42:15;12.00;;;9.27;;
6422;SDS011;3244;42.708;23.288;2022-12-20T08:44:42;10.67;;;6.70;;
6422;SDS011;3244;42.708;23.288;2022-12-20T08:47:09;13.13;;;7.40;;
6422;SDS011;3244;42.708;23.288;2022-12-20T08:49:35;13.30;;;8.57;;
6422;SDS011;3244;42.708;23.288;2022-12-20T08:52:02;10.90;;;7.93;;
6422;SDS011;3244;42.708;23.288;2022-12-20T08:54:29;9.70;;;8.33;;
6422;SDS011;3244;42.708;23.288;2022-12-20T08:56:56;9.33;;;7.73;;
6422;SDS011;3244;42.708;23.288;2022-12-20T08:59:24;9.93;;;7.95;;
6422;SDS011;3244;42.708;23.288;2022-12-20T09:01:51;9.60;;;7.43;;
6422;SDS011;3244;42.708;23.288;2022-12-20T09:04:18;15.73;;;7.93;;
6422;SDS011;3244;42.708;23.288;2022-12-20T09:06:45;17.40;;;7.55;;
6422;SDS011;3244;42.708;23.288;2022-12-20T09:09:12;10.20;;;7.50;;
6422;SDS011;3244;42.708;23.288;2022-12-20T09:11:40;11.85;;;8.23;;
6422;SDS011;3244;42.708;23.288;2022-12-20T09:14:07;16.00;;;7.57;;
6422;SDS011;3244;42.708;23.288;2022-12-20T09:16:35;15.40;;;7.57;;
6422;SDS011;3244;42.708;23.288;2022-12-20T09:19:02;11.88;;;7.35;;
6422;SDS011;3244;42.708;23.288;2022-12-20T09:21:30;12.80;;;7.72;;
6422;SDS011;3244;42.708;23.288;2022-12-20T09:23:57;13.65;;;8.85;;
6422;SDS011;3244;42.708;23.288;2022-12-20T09:26:24;10.97;;;9.07;;
6422;SDS011;3244;42.708;23.288;2022-12-20T09:28:51;14.75;;;7.60;;
6422;SDS011;3244;42.708;23.288;2022-12-20T09:31:18;13.18;;;7.80;;
6422;SDS011;3244;42.708;23.288;2022-12-20T09:33:48;9.32;;;7.70;;
6422;SDS011;3244;42.708;23.288;2022-12-20T09:36:16;13.95;;;7.82;;
6422;SDS011;3244;42.708;23.288;2022-12-20T09:38:43;14.93;;;8.18;;
6422;SDS011;3244;42.708;23.288;2022-12-20T09:41:16;13.68;;;8.48;;
6422;SDS011;3244;42.708;23.288;2022-12-20T09:43:48;13.93;;;9.13;;
6422;SDS011;3244;42.708;23.288;2022-12-20T09:46:15;10.32;;;7.63;;
6422;SDS011;3244;42.708;23.288;2022-12-20T09:48:42;21.17;;;8.68;;
6422;SDS011;3244;42.708;23.288;2022-12-20T09:51:13;23.73;;;9.15;;
6422;SDS011;3244;42.708;23.288;2022-12-20T09:53:56;17.85;;;9.27;;
6422;SDS011;3244;42.708;23.288;2022-12-20T09:56:35;30.08;;;9.30;;
6422;SDS011;3244;42.708;23.288;2022-12-20T09:59:04;10.60;;;8.00;;
6422;SDS011;3244;42.708;23.288;2022-12-20T10:01:31;13.80;;;8.43;;
6422;SDS011;3244;42.708;23.288;2022-12-20T10:04:02;14.40;;;9.10;;
6422;SDS011;3244;42.708;23.288;2022-12-20T10:06:36;10.05;;;8.57;;
6422;SDS011;3244;42.708;23.288;2022-12-20T10:09:17;10.93;;;8.05;;
6422;SDS011;3244;42.708;23.288;2022-12-20T10:12:08;13.20;;;9.73;;
6422;SDS011;3244;42.708;23.288;2022-12-20T10:14:49;14.35;;;9.57;;
6422;SDS011;3244;42.708;23.288;2022-12-20T10:17:32;18.65;;;9.90;;
6422;SDS011;3244;42.708;23.288;2022-12-20T10:20:18;24.92;;;12.80;;
6422;SDS011;3244;42.708;23.288;2022-12-20T10:22:56;11.70;;;7.90;;
6422;SDS011;3244;42.708;23.288;2022-12-20T10:25:28;9.02;;;7.82;;
6422;SDS011;3244;42.708;23.288;2022-12-20T10:27:56;27.58;;;16.58;;
6422;SDS011;3244;42.708;23.288;2022-12-20T10:30:26;11.98;;;7.85;;
6422;SDS011;3244;42.708;23.288;2022-12-20T10:32:55;11.93;;;8.70;;
6422;SDS011;3244;42.708;23.288;2022-12-20T10:35:24;11.27;;;7.88;;
6422;SDS011;3244;42.708;23.288;2022-12-20T10:37:57;10.20;;;7.85;;
6422;SDS011;3244;42.708;23.288;2022-12-20T10:40:26;12.10;;;7.35;;
6422;SDS011;3244;42.708;23.288;2022-12-20T10:42:55;9.25;;;7.97;;
6422;SDS011;3244;42.708;23.288;2022-12-20T10:45:33;12.30;;;8.45;;
6422;SDS011;3244;42.708;23.288;2022-12-20T10:48:02;10.68;;;8.18;;
6422;SDS011;3244;42.708;23.288;2022-12-20T10:50:49;10.65;;;7.72;;
6422;SDS011;3244;42.708;23.288;2022-12-20T10:53:23;9.15;;;7.03;;
6422;SDS011;3244;42.708;23.288;2022-12-20T10:55:51;9.93;;;7.53;;
6422;SDS011;3244;42.708;23.288;2022-12-20T10:58:29;8.73;;;7.15;;
6422;SDS011;3244;42.708;23.288;2022-12-20T11:01:03;14.57;;;7.90;;
6422;SDS011;3244;42.708;23.288;2022-12-20T11:03:32;9.20;;;8.05;;
6422;SDS011;3244;42.708;23.288;2022-12-20T11:06:00;8.68;;;7.80;;
6422;SDS011;3244;42.708;23.288;2022-12-20T11:08:30;8.82;;;6.95;;
6422;SDS011;3244;42.708;23.288;2022-12-20T11:11:11;10.80;;;7.85;;
6422;SDS011;3244;42.708;23.288;2022-12-20T11:13:41;10.93;;;7.47;;
6422;SDS011;3244;42.708;23.288;2022-12-20T11:18:55;10.93;;;7.72;;
6422;SDS011;3244;42.708;23.288;2022-12-20T11:21:40;13.55;;;7.30;;
6422;SDS011;3244;42.708;23.288;2022-12-20T11:24:26;14.52;;;7.43;;
6422;SDS011;3244;42.708;23.288;2022-12-20T11:27:06;10.07;;;7.90;;
6422;SDS011;3244;42.708;23.288;2022-12-20T11:32:33;16.90;;;7.50;;
6422;SDS011;3244;42.708;23.288;2022-12-20T11:35:17;13.05;;;8.10;;
6422;SDS011;3244;42.708;23.288;2022-12-20T11:37:49;10.85;;;7.18;;
6422;SDS011;3244;42.708;23.288;2022-12-20T11:40:29;12.95;;;7.85;;
6422;SDS011;3244;42.708;23.288;2022-12-20T11:43:11;7.68;;;6.78;;
6422;SDS011;3244;42.708;23.288;2022-12-20T11:46:00;8.07;;;6.32;;
6422;SDS011;3244;42.708;23.288;2022-12-20T11:48:44;9.27;;;6.45;;
6422;SDS011;3244;42.708;23.288;2022-12-20T11:51:20;8.90;;;6.03;;
6422;SDS011;3244;42.708;23.288;2022-12-20T11:53:49;11.10;;;6.38;;
6422;SDS011;3244;42.708;23.288;2022-12-20T11:56:25;9.95;;;6.78;;
6422;SDS011;3244;42.708;23.288;2022-12-20T11:58:56;8.75;;;6.72;;
6422;SDS011;3244;42.708;23.288;2022-12-20T12:01:28;8.67;;;6.00;;
6422;SDS011;3244;42.708;23.288;2022-12-20T12:04:02;7.68;;;6.20;;
6422;SDS011;3244;42.708;23.288;2022-12-20T12:06:37;10.38;;;7.15;;
6422;SDS011;3244;42.708;23.288;2022-12-20T12:09:12;8.73;;;6.50;;
6422;SDS011;3244;42.708;23.288;2022-12-20T12:11:48;8.32;;;6.60;;
6422;SDS011;3244;42.708;23.288;2022-12-20T12:14:22;9.13;;;6.03;;
6422;SDS011;3244;42.708;23.288;2022-12-20T12:16:57;8.73;;;6.10;;
6422;SDS011;3244;42.708;23.288;2022-12-20T12:19:31;16.77;;;10.27;;
6422;SDS011;3244;42.708;23.288;2022-12-20T12:22:00;32.92;;;7.55;;
6422;SDS011;3244;42.708;23.288;2022-12-20T12:24:31;25.48;;;7.10;;
6422;SDS011;3244;42.708;23.288;2022-12-20T12:27:06;182.70;;;19.30;;
6422;SDS011;3244;42.708;23.288;2022-12-20T12:29:40;14.82;;;7.47;;
6422;SDS011;3244;42.708;23.288;2022-12-20T12:32:07;8.98;;;6.22;;
6422;SDS011;3244;42.708;23.288;2022-12-20T12:34:46;9.00;;;6.47;;
6422;SDS011;3244;42.708;23.288;2022-12-20T12:37:31;7.20;;;6.47;;
6422;SDS011;3244;42.708;23.288;2022-12-20T12:40:19;10.07;;;6.23;;
6422;SDS011;3244;42.708;23.288;2022-12-20T12:46:15;9.00;;;6.28;;
6422;SDS011;3244;42.708;23.288;2022-12-20T12:48:47;8.25;;;6.80;;
6422;SDS011;3244;42.708;23.288;2022-12-20T12:51:21;7.88;;;6.55;;
6422;SDS011;3244;42.708;23.288;2022-12-20T12:53:52;10.30;;;7.40;;
6422;SDS011;3244;42.708;23.288;2022-12-20T12:56:35;6.25;;;5.53;;
6422;SDS011;3244;42.708;23.288;2022-12-20T12:59:18;12.23;;;5.97;;
6422;SDS011;3244;42.708;23.288;2022-12-20T13:04:52;11.20;;;5.83;;
6422;SDS011;3244;42.708;23.288;2022-12-20T13:07:25;9.10;;;6.67;;
6422;SDS011;3244;42.708;23.288;2022-12-20T13:09:53;7.73;;;6.23;;
6422;SDS011;3244;42.708;23.288;2022-12-20T13:18:25;8.90;;;5.70;;
6422;SDS011;3244;42.708;23.288;2022-12-20T13:27:21;8.07;;;5.05;;
6422;SDS011;3244;42.708;23.288;2022-12-20T13:38:57;7.00;;;4.72;;
6422;SDS011;3244;42.708;23.288;2022-12-20T13:41:30;7.10;;;4.20;;
6422;SDS011;3244;42.708;23.288;2022-12-20T13:44:00;8.47;;;4.83;;
6422;SDS011;3244;42.708;23.288;2022-12-20T13:46:39;7.15;;;4.32;;
6422;SDS011;3244;42.708;23.288;2022-12-20T13:49:14;5.07;;;4.57;;
6422;SDS011;3244;42.708;23.288;2022-12-20T13:51:47;7.25;;;4.43;;
6422;SDS011;3244;42.708;23.288;2022-12-20T13:54:16;7.45;;;5.38;;
6422;SDS011;3244;42.708;23.288;2022-12-20T13:56:46;5.90;;;5.20;;
6422;SDS011;3244;42.708;23.288;2022-12-20T13:59:15;6.50;;;4.57;;
6422;SDS011;3244;42.708;23.288;2022-12-20T14:01:48;6.53;;;4.63;;
6422;SDS011;3244;42.708;23.288;2022-12-20T14:04:18;7.33;;;4.63;;
6422;SDS011;3244;42.708;23.288;2022-12-20T14:06:48;7.45;;;5.07;;
6422;SDS011;3244;42.708;23.288;2022-12-20T14:09:27;6.28;;;4.22;;
6422;SDS011;3244;42.708;23.288;2022-12-20T14:12:10;7.47;;;4.60;;
6422;SDS011;3244;42.708;23.288;2022-12-20T14:14:41;6.77;;;4.87;;
6422;SDS011;3244;42.708;23.288;2022-12-20T14:17:16;7.33;;;4.53;;
6422;SDS011;3244;42.708;23.288;2022-12-20T14:20:01;6.57;;;5.10;;
6422;SDS011;3244;42.708;23.288;2022-12-20T14:22:33;8.27;;;5.90;;
6422;SDS011;3244;42.708;23.288;2022-12-20T14:25:01;16.02;;;7.28;;
6422;SDS011;3244;42.708;23.288;2022-12-20T14:27:32;12.13;;;7.10;;
6422;SDS011;3244;42.708;23.288;2022-12-20T14:30:01;14.57;;;7.33;;
6422;SDS011;3244;42.708;23.288;2022-12-20T14:32:31;11.47;;;7.40;;
6422;SDS011;3244;42.708;23.288;2022-12-20T14:34:58;15.13;;;8.30;;
6422;SDS011;3244;42.708;23.288;2022-12-20T14:37:30;18.53;;;8.43;;
6422;SDS011;3244;42.708;23.288;2022-12-20T14:39:59;12.70;;;8.60;;
6422;SDS011;3244;42.708;23.288;2022-12-20T14:42:28;16.15;;;8.35;;
6422;SDS011;3244;42.708;23.288;2022-12-20T14:45:05;12.40;;;7.78;;
6422;SDS011;3244;42.708;23.288;2022-12-20T14:47:47;13.77;;;9.83;;
6422;SDS011;3244;42.708;23.288;2022-12-20T14:50:16;16.63;;;9.18;;
6422;SDS011;3244;42.708;23.288;2022-12-20T14:52:46;9.52;;;7.45;;
6422;SDS011;3244;42.708;23.288;2022-12-20T14:55:14;8.93;;;8.02;;
6422;SDS011;3244;42.708;23.288;2022-12-20T14:57:44;16.05;;;8.70;;
6422;SDS011;3244;42.708;23.288;2022-12-20T15:00:17;11.35;;;8.50;;
6422;SDS011;3244;42.708;23.288;2022-12-20T15:02:48;17.65;;;8.85;;
6422;SDS011;3244;42.708;23.288;2022-12-20T15:08:11;23.50;;;8.65;;
6422;SDS011;3244;42.708;23.288;2022-12-20T15:10:39;15.48;;;8.48;;
6422;SDS011;3244;42.708;23.288;2022-12-20T15:13:10;17.67;;;8.30;;
6422;SDS011;3244;42.708;23.288;2022-12-20T15:15:38;16.23;;;8.02;;
6422;SDS011;3244;42.708;23.288;2022-12-20T15:18:08;14.32;;;9.32;;
6422;SDS011;3244;42.708;23.288;2022-12-20T15:20:37;13.20;;;8.27;;
6422;SDS011;3244;42.708;23.288;2022-12-20T15:23:07;18.25;;;8.15;;
6422;SDS011;3244;42.708;23.288;2022-12-20T15:25:40;8.53;;;7.10;;
6422;SDS011;3244;42.708;23.288;2022-12-20T15:28:11;12.37;;;5.77;;
6422;SDS011;3244;42.708;23.288;2022-12-20T15:30:39;14.43;;;6.10;;
6422;SDS011;3244;42.708;23.288;2022-12-20T15:33:08;12.13;;;7.10;;
6422;SDS011;3244;42.708;23.288;2022-12-20T15:35:41;14.27;;;7.03;;
6422;SDS011;3244;42.708;23.288;2022-12-20T15:38:12;11.97;;;7.00;;
6422;SDS011;3244;42.708;23.288;2022-12-20T15:40:41;16.23;;;8.67;;
6422;SDS011;3244;42.708;23.288;2022-12-20T15:43:10;16.35;;;8.45;;
6422;SDS011;3244;42.708;23.288;2022-12-20T15:45:38;24.60;;;9.23;;
6422;SDS011;3244;42.708;23.288;2022-12-20T15:48:08;16.55;;;9.32;;
6422;SDS011;3244;42.708;23.288;2022-12-20T15:50:39;16.23;;;9.30;;